createdAt,value
2017-09-23T00:00:58.722Z,0
2017-09-23T00:02:08.336Z,0
2017-09-23T00:03:17.333Z,0
2017-09-23T00:04:26.303Z,0
2017-09-23T00:05:36.162Z,0
2017-09-23T00:06:44.838Z,0
2017-09-23T00:07:54.130Z,0
2017-09-23T00:09:03.413Z,0
2017-09-23T00:10:12.401Z,0
2017-09-23T00:11:21.707Z,0
2017-09-23T00:12:30.686Z,0
2017-09-23T00:13:39.345Z,0
2017-09-23T00:14:48.307Z,0
2017-09-23T00:15:57.596Z,0
2017-09-23T00:17:06.579Z,0
2017-09-23T00:18:15.566Z,0
2017-09-23T00:19:24.854Z,0
2017-09-23T00:20:33.825Z,0
2017-09-23T00:21:43.126Z,0
2017-09-23T00:22:51.875Z,0
2017-09-23T00:24:00.866Z,0
2017-09-23T00:25:09.833Z,0
2017-09-23T00:26:19.167Z,0
2017-09-23T00:27:27.829Z,0
2017-09-23T00:28:36.480Z,0
2017-09-23T00:29:45.457Z,0
2017-09-23T00:30:54.420Z,0
2017-09-23T00:32:03.071Z,0
2017-09-23T00:33:12.743Z,0
2017-09-23T00:34:22.037Z,0
2017-09-23T00:35:31.642Z,0
2017-09-23T00:36:40.298Z,0
2017-09-23T00:37:49.280Z,0
2017-09-23T00:38:57.942Z,0
2017-09-23T00:40:07.867Z,0
2017-09-23T00:41:16.597Z,0
2017-09-23T00:42:25.257Z,0
2017-09-23T00:43:33.921Z,0
2017-09-23T00:44:43.509Z,0
2017-09-23T00:45:52.777Z,0
2017-09-23T00:47:01.756Z,0
2017-09-23T00:48:11.360Z,0
2017-09-23T00:49:20.004Z,0
2017-09-23T00:50:28.978Z,0
2017-09-23T00:51:37.792Z,0
2017-09-23T00:52:46.764Z,0
2017-09-23T00:53:55.746Z,0
2017-09-23T00:55:05.053Z,0
2017-09-23T00:56:14.027Z,0
2017-09-23T00:57:22.825Z,0
2017-09-23T00:58:31.507Z,0
2017-09-23T00:59:40.794Z,0
2017-09-23T01:00:49.453Z,0
2017-09-23T01:01:58.097Z,0
2017-09-23T01:03:06.766Z,0
2017-09-23T01:04:16.043Z,0
2017-09-23T01:05:25.270Z,0
2017-09-23T01:06:33.921Z,0
2017-09-23T01:07:43.202Z,0
2017-09-23T01:08:51.856Z,0
2017-09-23T01:10:00.837Z,0
2017-09-23T01:11:10.129Z,0
2017-09-23T01:12:19.089Z,0
2017-09-23T01:13:28.062Z,0
2017-09-23T01:14:37.342Z,0
2017-09-23T01:15:46.633Z,0
2017-09-23T01:16:55.595Z,0
2017-09-23T01:18:04.560Z,0
2017-09-23T01:19:13.533Z,0
2017-09-23T01:20:22.976Z,0
2017-09-23T01:21:31.951Z,0
2017-09-23T01:22:41.258Z,0
2017-09-23T01:23:49.912Z,0
2017-09-23T01:24:58.573Z,0
2017-09-23T01:26:07.855Z,0
2017-09-23T01:27:16.830Z,0
2017-09-23T01:28:25.800Z,0
2017-09-23T01:29:34.472Z,0
2017-09-23T01:30:43.770Z,0
2017-09-23T01:31:52.525Z,0
2017-09-23T01:33:01.495Z,0
2017-09-23T01:34:10.480Z,0
2017-09-23T01:35:19.784Z,0
2017-09-23T01:36:29.062Z,0
2017-09-23T01:37:38.365Z,0
2017-09-23T01:38:47.349Z,0
2017-09-23T01:39:56.641Z,0
2017-09-23T01:41:05.302Z,0
2017-09-23T01:42:14.614Z,0
2017-09-23T01:43:23.895Z,0
2017-09-23T01:44:32.864Z,0
2017-09-23T01:45:42.146Z,0
2017-09-23T01:46:50.811Z,0
2017-09-23T01:48:00.107Z,0
2017-09-23T01:49:09.761Z,0
2017-09-23T01:50:19.686Z,0
2017-09-23T01:51:28.332Z,0
2017-09-23T01:52:37.312Z,0
2017-09-23T01:53:46.608Z,0
2017-09-23T01:54:55.894Z,0
2017-09-23T01:56:04.859Z,0
2017-09-23T01:57:13.847Z,0
2017-09-23T01:58:23.443Z,0
2017-09-23T01:59:33.093Z,0
2017-09-23T02:00:42.502Z,0
2017-09-23T02:01:51.165Z,0
2017-09-23T02:03:00.138Z,0
2017-09-23T02:04:09.108Z,0
2017-09-23T02:05:17.766Z,0
2017-09-23T02:06:26.878Z,0
2017-09-23T02:07:35.550Z,0
2017-09-23T02:08:44.578Z,0
2017-09-23T02:09:53.232Z,0
2017-09-23T02:11:02.839Z,0
2017-09-23T02:12:11.807Z,0
2017-09-23T02:13:20.461Z,0
2017-09-23T02:14:29.755Z,0
2017-09-23T02:15:38.427Z,0
2017-09-23T02:16:47.086Z,0
2017-09-23T02:17:56.067Z,0
2017-09-23T02:19:05.042Z,0
2017-09-23T02:20:13.704Z,0
2017-09-23T02:21:23.338Z,0
2017-09-23T02:22:32.624Z,0
2017-09-23T02:23:41.893Z,0
2017-09-23T02:24:50.542Z,0
2017-09-23T02:25:59.192Z,0
2017-09-23T02:27:08.852Z,0
2017-09-23T02:28:17.839Z,0
2017-09-23T02:29:26.655Z,0
2017-09-23T02:30:35.648Z,0
2017-09-23T02:31:44.296Z,0
2017-09-23T02:32:52.954Z,0
2017-09-23T02:34:02.247Z,0
2017-09-23T02:35:11.230Z,0
2017-09-23T02:36:20.211Z,0
2017-09-23T02:37:29.188Z,0
2017-09-23T02:38:38.492Z,0
2017-09-23T02:39:47.777Z,0
2017-09-23T02:40:57.715Z,0
2017-09-23T02:42:07.323Z,0
2017-09-23T02:43:16.594Z,0
2017-09-23T02:44:25.592Z,0
2017-09-23T02:45:35.197Z,0
2017-09-23T02:46:44.494Z,0
2017-09-23T02:47:53.157Z,0
2017-09-23T02:49:02.456Z,0
2017-09-23T02:50:11.423Z,0
2017-09-23T02:51:20.414Z,0
2017-09-23T02:52:29.352Z,0
2017-09-23T02:53:37.998Z,0
2017-09-23T02:54:46.651Z,0
2017-09-23T02:55:56.256Z,0
2017-09-23T02:57:05.229Z,0
2017-09-23T02:58:14.505Z,0
2017-09-23T02:59:23.464Z,0
2017-09-23T03:00:32.453Z,0
2017-09-23T03:01:41.110Z,0
2017-09-23T03:02:50.083Z,0
2017-09-23T03:03:59.379Z,0
2017-09-23T03:05:08.671Z,0
2017-09-23T03:06:17.649Z,0
2017-09-23T03:07:26.309Z,0
2017-09-23T03:08:35.606Z,0
2017-09-23T03:09:45.046Z,0
2017-09-23T03:10:54.016Z,0
2017-09-23T03:12:02.992Z,0
2017-09-23T03:13:11.966Z,0
2017-09-23T03:14:21.249Z,0
2017-09-23T03:15:31.175Z,0
2017-09-23T03:16:40.145Z,0
2017-09-23T03:17:48.797Z,0
2017-09-23T03:18:57.771Z,0
2017-09-23T03:20:06.738Z,0
2017-09-23T03:21:16.038Z,0
2017-09-23T03:22:25.338Z,0
2017-09-23T03:23:34.631Z,0
2017-09-23T03:24:43.613Z,0
2017-09-23T03:25:52.580Z,0
2017-09-23T03:27:01.667Z,0
2017-09-23T03:28:11.267Z,0
2017-09-23T03:29:20.290Z,0
2017-09-23T03:30:29.573Z,0
2017-09-23T03:31:38.853Z,0
2017-09-23T03:32:47.847Z,0
2017-09-23T03:33:56.846Z,0
2017-09-23T03:35:06.419Z,0
2017-09-23T03:36:15.720Z,0
2017-09-23T03:37:25.012Z,0
2017-09-23T03:38:34.609Z,0
2017-09-23T03:39:43.269Z,0
2017-09-23T03:40:52.311Z,0
2017-09-23T03:42:00.961Z,0
2017-09-23T03:43:09.613Z,0
2017-09-23T03:44:18.761Z,0
2017-09-23T03:45:27.420Z,0
2017-09-23T03:46:36.113Z,0
2017-09-23T03:47:45.090Z,0
2017-09-23T03:48:54.378Z,0
2017-09-23T03:50:03.494Z,0
2017-09-23T03:51:12.483Z,0
2017-09-23T03:52:21.149Z,0
2017-09-23T03:53:30.134Z,0
2017-09-23T03:54:40.090Z,0
2017-09-23T03:55:49.167Z,0
2017-09-23T03:56:58.472Z,0
2017-09-23T03:58:07.445Z,0
2017-09-23T03:59:16.428Z,0
2017-09-23T04:00:26.037Z,0
2017-09-23T04:01:35.657Z,0
2017-09-23T04:02:44.627Z,0
2017-09-23T04:03:53.931Z,0
2017-09-23T04:05:03.530Z,0
2017-09-23T04:06:12.193Z,0
2017-09-23T04:07:21.586Z,0
2017-09-23T04:08:30.865Z,0
2017-09-23T04:09:39.828Z,0
2017-09-23T04:10:49.436Z,0
2017-09-23T04:11:58.419Z,0
2017-09-23T04:13:07.551Z,0
2017-09-23T04:14:16.212Z,0
2017-09-23T04:15:25.185Z,0
2017-09-23T04:16:34.486Z,0
2017-09-23T04:17:43.163Z,0
2017-09-23T04:18:52.785Z,0
2017-09-23T04:20:01.754Z,0
2017-09-23T04:21:10.739Z,0
2017-09-23T04:22:19.389Z,0
2017-09-23T04:23:29.026Z,0
2017-09-23T04:24:38.153Z,0
2017-09-23T04:25:46.826Z,0
2017-09-23T04:26:55.790Z,0
2017-09-23T04:28:05.073Z,0
2017-09-23T04:29:14.377Z,0
2017-09-23T04:30:23.150Z,0
2017-09-23T04:31:32.434Z,0
2017-09-23T04:32:41.414Z,0
2017-09-23T04:33:50.695Z,0
2017-09-23T04:34:59.983Z,0
2017-09-23T04:36:09.062Z,0
2017-09-23T04:37:18.064Z,0
2017-09-23T04:38:27.374Z,0
2017-09-23T04:39:36.071Z,0
2017-09-23T04:40:45.053Z,0
2017-09-23T04:41:53.725Z,0
2017-09-23T04:43:03.011Z,0
2017-09-23T04:44:11.985Z,0
2017-09-23T04:45:20.639Z,0
2017-09-23T04:46:29.616Z,0
2017-09-23T04:47:39.205Z,0
2017-09-23T04:48:48.501Z,0
2017-09-23T04:49:57.156Z,0
2017-09-23T04:51:06.767Z,0
2017-09-23T04:52:16.359Z,0
2017-09-23T04:53:25.496Z,0
2017-09-23T04:54:34.175Z,0
2017-09-23T04:55:43.177Z,0
2017-09-23T04:56:51.929Z,0
2017-09-23T04:58:01.236Z,0
2017-09-23T04:59:10.229Z,0
2017-09-23T05:00:18.891Z,0
2017-09-23T05:01:27.875Z,0
2017-09-23T05:02:36.864Z,0
2017-09-23T05:03:45.867Z,4
2017-09-23T05:04:55.484Z,4
2017-09-23T05:06:04.798Z,4
2017-09-23T05:07:14.156Z,4
2017-09-23T05:08:22.844Z,12
2017-09-23T05:09:57.487Z,12
2017-09-23T05:11:07.406Z,12
2017-09-23T05:12:16.720Z,12
2017-09-23T05:13:25.378Z,16
2017-09-23T05:14:34.364Z,20
2017-09-23T05:15:43.193Z,28
2017-09-23T05:16:52.173Z,28
2017-09-23T05:18:01.471Z,24
2017-09-23T05:19:10.775Z,28
2017-09-23T05:20:19.760Z,28
2017-09-23T05:21:28.977Z,28
2017-09-23T05:22:37.623Z,32
2017-09-23T05:23:47.238Z,36
2017-09-23T05:24:56.899Z,36
2017-09-23T05:26:05.864Z,32
2017-09-23T05:27:15.154Z,40
2017-09-23T05:28:24.126Z,36
2017-09-23T05:29:33.433Z,36
2017-09-23T05:30:42.459Z,36
2017-09-23T05:31:51.447Z,40
2017-09-23T05:33:00.261Z,44
2017-09-23T05:34:08.932Z,44
2017-09-23T05:35:18.539Z,44
2017-09-23T05:36:27.812Z,48
2017-09-23T05:37:37.101Z,48
2017-09-23T05:38:46.415Z,52
2017-09-23T05:39:55.712Z,56
2017-09-23T05:41:05.015Z,60
2017-09-23T05:42:14.035Z,64
2017-09-23T05:43:23.029Z,76
2017-09-23T05:44:32.312Z,84
2017-09-23T05:45:41.286Z,84
2017-09-23T05:46:50.259Z,84
2017-09-23T05:47:59.547Z,84
2017-09-23T05:49:09.140Z,84
2017-09-23T05:50:17.798Z,80
2017-09-23T05:51:27.093Z,76
2017-09-23T05:52:36.092Z,72
2017-09-23T05:53:45.394Z,76
2017-09-23T05:54:55.009Z,92
2017-09-23T05:56:04.318Z,80
2017-09-23T05:57:13.621Z,72
2017-09-23T05:58:22.904Z,76
2017-09-23T05:59:31.596Z,84
2017-09-23T06:00:40.866Z,100
2017-09-23T06:01:50.655Z,96
2017-09-23T06:02:59.637Z,96
2017-09-23T06:04:09.295Z,100
2017-09-23T06:05:18.287Z,92
2017-09-23T06:06:27.580Z,92
2017-09-23T06:07:36.570Z,88
2017-09-23T06:08:45.541Z,88
2017-09-23T06:09:54.200Z,88
2017-09-23T06:11:03.197Z,88
2017-09-23T06:12:11.861Z,88
2017-09-23T06:13:21.308Z,96
2017-09-23T06:14:30.612Z,100
2017-09-23T06:15:39.609Z,104
2017-09-23T06:16:48.584Z,104
2017-09-23T06:17:57.245Z,112
2017-09-23T06:19:06.890Z,108
2017-09-23T06:20:15.552Z,104
2017-09-23T06:21:24.529Z,100
2017-09-23T06:22:33.842Z,96
2017-09-23T06:23:42.581Z,104
2017-09-23T06:24:51.713Z,112
2017-09-23T06:26:00.692Z,112
2017-09-23T06:27:09.996Z,112
2017-09-23T06:28:18.653Z,108
2017-09-23T06:29:27.309Z,112
2017-09-23T06:30:36.106Z,112
2017-09-23T06:31:44.863Z,116
2017-09-23T06:32:53.861Z,132
2017-09-23T06:34:02.859Z,140
2017-09-23T06:35:12.167Z,140
2017-09-23T06:36:21.263Z,132
2017-09-23T06:37:30.227Z,124
2017-09-23T06:38:38.903Z,116
2017-09-23T06:39:47.890Z,116
2017-09-23T06:40:56.877Z,120
2017-09-23T06:42:06.160Z,120
2017-09-23T06:43:15.455Z,132
2017-09-23T06:44:24.736Z,156
2017-09-23T06:45:34.039Z,180
2017-09-23T06:46:42.715Z,192
2017-09-23T06:47:52.036Z,188
2017-09-23T06:49:01.344Z,184
2017-09-23T06:50:10.048Z,192
2017-09-23T06:51:19.337Z,224
2017-09-23T06:52:28.333Z,276
2017-09-23T06:53:38.035Z,344
2017-09-23T06:54:47.333Z,408
2017-09-23T06:55:56.957Z,460
2017-09-23T06:57:05.980Z,520
2017-09-23T06:58:14.980Z,588
2017-09-23T06:59:24.117Z,680
2017-09-23T07:00:33.110Z,800
2017-09-23T07:01:42.416Z,932
2017-09-23T07:02:51.087Z,1056
2017-09-23T07:04:00.054Z,1204
2017-09-23T07:05:08.728Z,1308
2017-09-23T07:06:18.072Z,1412
2017-09-23T07:07:27.047Z,1552
2017-09-23T07:08:36.654Z,1756
2017-09-23T07:09:45.946Z,1928
2017-09-23T07:10:55.072Z,1992
2017-09-23T07:12:04.061Z,2104
2017-09-23T07:13:13.679Z,2212
2017-09-23T07:14:22.640Z,2336
2017-09-23T07:15:31.602Z,2464
2017-09-23T07:16:40.570Z,2672
2017-09-23T07:17:49.244Z,2848
2017-09-23T07:18:57.912Z,2840
2017-09-23T07:20:06.600Z,2712
2017-09-23T07:21:15.594Z,2464
2017-09-23T07:22:24.869Z,2260
2017-09-23T07:23:33.857Z,2236
2017-09-23T07:24:42.823Z,2292
2017-09-23T07:25:52.120Z,2316
2017-09-23T07:27:00.935Z,2388
2017-09-23T07:28:09.593Z,2552
2017-09-23T07:29:18.254Z,2660
2017-09-23T07:30:27.231Z,2608
2017-09-23T07:31:36.520Z,2476
2017-09-23T07:32:46.446Z,2436
2017-09-23T07:33:55.729Z,2464
2017-09-23T07:35:05.043Z,2496
2017-09-23T07:36:13.700Z,2536
2017-09-23T07:37:22.695Z,2548
2017-09-23T07:38:32.491Z,2564
2017-09-23T07:39:41.799Z,2612
2017-09-23T07:40:50.476Z,2672
2017-09-23T07:42:00.095Z,2732
2017-09-23T07:43:09.072Z,2760
2017-09-23T07:44:18.345Z,2696
2017-09-23T07:45:27.042Z,2612
2017-09-23T07:46:36.070Z,2568
2017-09-23T07:47:45.068Z,2608
2017-09-23T07:48:54.718Z,2668
2017-09-23T07:50:03.839Z,2752
2017-09-23T07:51:13.141Z,2840
2017-09-23T07:52:22.125Z,2956
2017-09-23T07:53:31.119Z,2964
2017-09-23T07:54:40.433Z,2740
2017-09-23T07:55:49.407Z,2656
2017-09-23T07:56:59.029Z,2624
2017-09-23T07:58:07.706Z,2764
2017-09-23T07:59:17.622Z,2740
2017-09-23T08:00:26.947Z,2460
2017-09-23T08:01:36.306Z,2204
2017-09-23T08:02:44.976Z,2212
2017-09-23T08:03:53.979Z,1824
2017-09-23T08:05:03.028Z,1636
2017-09-23T08:06:11.703Z,1580
2017-09-23T08:07:21.105Z,1324
2017-09-23T08:08:29.813Z,1168
2017-09-23T08:09:38.841Z,1124
2017-09-23T08:10:47.826Z,1160
2017-09-23T08:11:57.139Z,1200
2017-09-23T08:13:06.111Z,1252
2017-09-23T08:14:15.083Z,1296
2017-09-23T08:15:24.152Z,1348
2017-09-23T08:16:33.123Z,1500
2017-09-23T08:17:41.793Z,1704
2017-09-23T08:18:51.626Z,1776
2017-09-23T08:20:00.577Z,1680
2017-09-23T08:21:09.616Z,1564
2017-09-23T08:22:18.577Z,1496
2017-09-23T08:23:27.549Z,1528
2017-09-23T08:24:36.306Z,1608
2017-09-23T08:25:44.972Z,1640
2017-09-23T08:26:54.341Z,1504
2017-09-23T08:28:02.985Z,1448
2017-09-23T08:29:11.639Z,1480
2017-09-23T08:30:20.469Z,1612
2017-09-23T08:31:29.508Z,1768
2017-09-23T08:32:39.107Z,1920
2017-09-23T08:33:47.758Z,2052
2017-09-23T08:34:57.361Z,2136
2017-09-23T08:36:06.328Z,2192
2017-09-23T08:37:15.638Z,2308
2017-09-23T08:38:25.248Z,2420
2017-09-23T08:39:34.842Z,2340
2017-09-23T08:40:43.810Z,2332
2017-09-23T08:41:52.802Z,2420
2017-09-23T08:43:02.157Z,2476
2017-09-23T08:44:11.456Z,2488
2017-09-23T08:45:20.119Z,2464
2017-09-23T08:46:28.793Z,2456
2017-09-23T08:47:38.076Z,2508
2017-09-23T08:48:47.049Z,2544
2017-09-23T08:49:56.016Z,2540
2017-09-23T08:51:05.314Z,2604
2017-09-23T08:52:14.283Z,2816
2017-09-23T08:53:23.568Z,2992
2017-09-23T08:54:32.222Z,3000
2017-09-23T08:55:41.878Z,2920
2017-09-23T08:56:51.039Z,2852
2017-09-23T08:58:00.307Z,2924
2017-09-23T08:59:09.668Z,2876
2017-09-23T09:00:18.338Z,2724
2017-09-23T09:01:27.610Z,2520
2017-09-23T09:02:36.257Z,2284
2017-09-23T09:03:45.562Z,2072
2017-09-23T09:04:54.624Z,2080
2017-09-23T09:06:03.963Z,2228
2017-09-23T09:07:13.263Z,2316
2017-09-23T09:08:22.531Z,2400
2017-09-23T09:09:31.507Z,2448
2017-09-23T09:10:40.802Z,2476
2017-09-23T09:11:49.789Z,2504
2017-09-23T09:12:58.775Z,2524
2017-09-23T09:14:07.823Z,2568
2017-09-23T09:15:17.277Z,2708
2017-09-23T09:16:26.336Z,2916
2017-09-23T09:17:35.736Z,3100
2017-09-23T09:18:44.991Z,3216
2017-09-23T09:19:54.311Z,3304
2017-09-23T09:21:04.308Z,3236
2017-09-23T09:22:14.161Z,3044
2017-09-23T09:23:23.145Z,2852
2017-09-23T09:24:32.160Z,2648
2017-09-23T09:25:41.461Z,2792
2017-09-23T09:26:50.789Z,2756
2017-09-23T09:28:00.239Z,2828
2017-09-23T09:29:09.559Z,2736
2017-09-23T09:30:18.267Z,2652
2017-09-23T09:31:27.574Z,2552
2017-09-23T09:32:36.862Z,2428
2017-09-23T09:33:46.440Z,2508
2017-09-23T09:34:55.723Z,2684
2017-09-23T09:36:05.007Z,2664
2017-09-23T09:37:14.286Z,2524
2017-09-23T09:38:23.611Z,2328
2017-09-23T09:39:32.806Z,2060
2017-09-23T09:40:41.468Z,1968
2017-09-23T09:41:50.777Z,1836
2017-09-23T09:42:59.755Z,1704
2017-09-23T09:44:08.723Z,1612
2017-09-23T09:45:17.993Z,1572
2017-09-23T09:46:27.295Z,1580
2017-09-23T09:47:36.270Z,1548
2017-09-23T09:48:45.251Z,1456
2017-09-23T09:49:54.555Z,1440
2017-09-23T09:51:03.543Z,1472
2017-09-23T09:52:12.815Z,1580
2017-09-23T09:53:22.133Z,1636
2017-09-23T09:54:31.405Z,1628
2017-09-23T09:55:40.078Z,1580
2017-09-23T09:56:49.513Z,1476
2017-09-23T09:57:59.147Z,1376
2017-09-23T09:59:07.808Z,1356
2017-09-23T10:00:16.786Z,1372
2017-09-23T10:01:26.398Z,1432
2017-09-23T10:02:35.842Z,1600
2017-09-23T10:03:44.824Z,1664
2017-09-23T10:04:54.100Z,1612
2017-09-23T10:06:02.745Z,1700
2017-09-23T10:07:11.400Z,1864
2017-09-23T10:08:20.681Z,1900
2017-09-23T10:09:29.985Z,1824
2017-09-23T10:10:39.269Z,1712
2017-09-23T10:11:48.247Z,1624
2017-09-23T10:12:57.525Z,1648
2017-09-23T10:14:06.493Z,1708
2017-09-23T10:15:15.137Z,1728
2017-09-23T10:16:23.799Z,1768
2017-09-23T10:17:33.148Z,1844
2017-09-23T10:18:41.832Z,1932
2017-09-23T10:19:50.498Z,1992
2017-09-23T10:20:59.786Z,2040
2017-09-23T10:22:09.077Z,2056
2017-09-23T10:23:18.065Z,2116
2017-09-23T10:24:27.076Z,2128
2017-09-23T10:25:35.750Z,2020
2017-09-23T10:26:45.031Z,1964
2017-09-23T10:27:54.936Z,1916
2017-09-23T10:29:04.226Z,1812
2017-09-23T10:30:13.200Z,1748
2017-09-23T10:31:22.314Z,1720
2017-09-23T10:32:31.287Z,1712
2017-09-23T10:33:40.256Z,1692
2017-09-23T10:34:49.591Z,1688
2017-09-23T10:35:58.600Z,1704
2017-09-23T10:37:07.407Z,1740
2017-09-23T10:38:16.723Z,1788
2017-09-23T10:39:25.703Z,1892
2017-09-23T10:40:34.979Z,2076
2017-09-23T10:41:44.306Z,2260
2017-09-23T10:42:53.602Z,2228
2017-09-23T10:44:02.886Z,2212
2017-09-23T10:45:12.821Z,2208
2017-09-23T10:46:21.804Z,2168
2017-09-23T10:47:30.783Z,2176
2017-09-23T10:48:39.432Z,2192
2017-09-23T10:49:48.400Z,2244
2017-09-23T10:50:57.670Z,2364
2017-09-23T10:52:06.970Z,2412
2017-09-23T10:53:15.618Z,2476
2017-09-23T10:54:25.062Z,2684
2017-09-23T10:55:34.655Z,2756
2017-09-23T10:56:43.660Z,2632
2017-09-23T10:57:52.949Z,2636
2017-09-23T10:59:02.241Z,2608
2017-09-23T11:00:11.261Z,2688
2017-09-23T11:01:20.256Z,2648
2017-09-23T11:02:29.238Z,2452
2017-09-23T11:03:37.891Z,2160
2017-09-23T11:04:46.557Z,1956
2017-09-23T11:05:55.841Z,1772
2017-09-23T11:07:04.801Z,1620
2017-09-23T11:08:13.768Z,1588
2017-09-23T11:09:22.527Z,1572
2017-09-23T11:10:31.834Z,1624
2017-09-23T11:11:40.503Z,1584
2017-09-23T11:12:49.483Z,1772
2017-09-23T11:13:58.804Z,1896
2017-09-23T11:15:07.776Z,1996
2017-09-23T11:16:16.735Z,1956
2017-09-23T11:17:25.861Z,1896
2017-09-23T11:18:34.828Z,1704
2017-09-23T11:19:43.788Z,1580
2017-09-23T11:20:52.446Z,1600
2017-09-23T11:22:01.416Z,1580
2017-09-23T11:23:10.235Z,1576
2017-09-23T11:24:19.202Z,1596
2017-09-23T11:25:28.482Z,1664
2017-09-23T11:26:37.767Z,1700
2017-09-23T11:27:46.736Z,1708
2017-09-23T11:28:56.003Z,1824
2017-09-23T11:30:05.288Z,1896
2017-09-23T11:31:14.901Z,1936
2017-09-23T11:32:24.187Z,2036
2017-09-23T11:33:33.486Z,2000
2017-09-23T11:34:42.770Z,1916
2017-09-23T11:35:51.747Z,1960
2017-09-23T11:37:00.397Z,2016
2017-09-23T11:38:09.399Z,1996
2017-09-23T11:39:18.711Z,2084
2017-09-23T11:40:27.684Z,1892
2017-09-23T11:41:36.655Z,1740
2017-09-23T11:42:45.308Z,1544
2017-09-23T11:43:54.282Z,1384
2017-09-23T11:45:03.938Z,1380
2017-09-23T11:46:14.003Z,1460
2017-09-23T11:47:23.921Z,1660
2017-09-23T11:48:33.234Z,1644
2017-09-23T11:49:41.898Z,1688
2017-09-23T11:50:51.190Z,1656
2017-09-23T11:52:00.985Z,1644
2017-09-23T11:53:10.277Z,1616
2017-09-23T11:54:19.269Z,1640
2017-09-23T11:55:27.949Z,1700
2017-09-23T11:56:36.954Z,1908
2017-09-23T11:57:46.086Z,1984
2017-09-23T11:58:55.680Z,2032
2017-09-23T12:00:04.656Z,2068
2017-09-23T12:01:13.315Z,2120
2017-09-23T12:02:22.949Z,2016
2017-09-23T12:03:32.074Z,1852
2017-09-23T12:04:41.671Z,1808
2017-09-23T12:05:50.636Z,1836
2017-09-23T12:06:59.654Z,1900
2017-09-23T12:08:08.957Z,1904
2017-09-23T12:09:17.929Z,1856
2017-09-23T12:10:26.665Z,1808
2017-09-23T12:11:35.646Z,1756
2017-09-23T12:12:44.635Z,1836
2017-09-23T12:13:54.268Z,1868
2017-09-23T12:15:03.722Z,1804
2017-09-23T12:16:13.031Z,1744
2017-09-23T12:17:22.313Z,1740
2017-09-23T12:18:31.608Z,1756
2017-09-23T12:19:41.216Z,1844
2017-09-23T12:20:50.368Z,1880
2017-09-23T12:21:59.962Z,1904
2017-09-23T12:23:08.950Z,1896
2017-09-23T12:24:17.595Z,1772
2017-09-23T12:25:26.892Z,1632
2017-09-23T12:26:36.004Z,1556
2017-09-23T12:27:45.295Z,1528
2017-09-23T12:28:54.265Z,1400
2017-09-23T12:30:02.927Z,1304
2017-09-23T12:31:11.906Z,1244
2017-09-23T12:32:20.873Z,1304
2017-09-23T12:33:29.840Z,1464
2017-09-23T12:34:38.526Z,1536
2017-09-23T12:35:47.498Z,1568
2017-09-23T12:36:57.416Z,1496
2017-09-23T12:38:06.449Z,1448
2017-09-23T12:39:15.514Z,1424
2017-09-23T12:40:25.818Z,1536
2017-09-23T12:41:34.498Z,1604
2017-09-23T12:42:43.188Z,1536
2017-09-23T12:43:52.167Z,1420
2017-09-23T12:45:01.165Z,1344
2017-09-23T12:46:10.138Z,1280
2017-09-23T12:47:19.749Z,1236
2017-09-23T12:48:28.414Z,1224
2017-09-23T12:49:37.603Z,1156
2017-09-23T12:50:46.951Z,1164
2017-09-23T12:51:56.548Z,1072
2017-09-23T12:53:05.207Z,1060
2017-09-23T12:54:13.878Z,1068
2017-09-23T12:55:24.197Z,1124
2017-09-23T12:56:33.170Z,1148
2017-09-23T12:57:42.496Z,1044
2017-09-23T12:58:52.104Z,1016
2017-09-23T13:00:01.090Z,984
2017-09-23T13:01:10.385Z,900
2017-09-23T13:02:20.016Z,884
2017-09-23T13:03:28.674Z,872
2017-09-23T13:04:37.668Z,812
2017-09-23T13:05:46.358Z,828
2017-09-23T13:06:55.474Z,888
2017-09-23T13:08:04.779Z,948
2017-09-23T13:09:13.760Z,992
2017-09-23T13:10:22.713Z,952
2017-09-23T13:11:31.706Z,960
2017-09-23T13:12:41.001Z,952
2017-09-23T13:13:50.429Z,932
2017-09-23T13:14:59.408Z,936
2017-09-23T13:16:08.498Z,936
2017-09-23T13:17:17.198Z,944
2017-09-23T13:18:26.323Z,944
2017-09-23T13:19:35.299Z,952
2017-09-23T13:20:44.917Z,956
2017-09-23T13:21:53.575Z,964
2017-09-23T13:23:02.543Z,980
2017-09-23T13:24:11.370Z,1024
2017-09-23T13:25:20.690Z,1132
2017-09-23T13:26:30.018Z,1216
2017-09-23T13:27:38.721Z,1320
2017-09-23T13:28:48.041Z,1448
2017-09-23T13:29:57.445Z,1548
2017-09-23T13:31:06.441Z,1588
2017-09-23T13:32:15.419Z,1616
2017-09-23T13:33:24.381Z,1644
2017-09-23T13:34:33.028Z,1624
2017-09-23T13:35:41.691Z,1580
2017-09-23T13:36:50.663Z,1500
2017-09-23T13:37:59.660Z,1612
2017-09-23T13:39:08.619Z,1692
2017-09-23T13:40:17.582Z,1648
2017-09-23T13:41:26.919Z,1548
2017-09-23T13:42:35.579Z,1484
2017-09-23T13:43:44.562Z,1432
2017-09-23T13:44:53.540Z,1404
2017-09-23T13:46:02.503Z,1392
2017-09-23T13:47:11.780Z,1372
2017-09-23T13:48:20.774Z,1464
2017-09-23T13:49:30.133Z,1524
2017-09-23T13:50:38.800Z,1628
2017-09-23T13:51:48.082Z,1776
2017-09-23T13:52:57.045Z,1920
2017-09-23T13:54:06.014Z,2100
2017-09-23T13:55:15.022Z,2212
2017-09-23T13:56:23.678Z,2176
2017-09-23T13:57:32.973Z,2092
2017-09-23T13:58:41.773Z,2028
2017-09-23T13:59:51.072Z,1916
2017-09-23T14:01:00.381Z,1836
2017-09-23T14:02:09.367Z,1788
2017-09-23T14:03:18.378Z,1760
2017-09-23T14:04:27.656Z,1780
2017-09-23T14:05:36.621Z,1648
2017-09-23T14:06:46.214Z,1484
2017-09-23T14:07:55.834Z,1292
2017-09-23T14:09:05.115Z,1196
2017-09-23T14:10:13.869Z,1184
2017-09-23T14:11:22.528Z,1144
2017-09-23T14:12:31.182Z,1120
2017-09-23T14:13:39.840Z,1112
2017-09-23T14:14:48.803Z,1140
2017-09-23T14:15:58.498Z,1236
2017-09-23T14:17:07.476Z,1260
2017-09-23T14:18:16.452Z,1252
2017-09-23T14:19:25.427Z,1236
2017-09-23T14:20:34.412Z,1180
2017-09-23T14:21:43.452Z,1100
2017-09-23T14:22:52.103Z,1028
2017-09-23T14:24:01.709Z,996
2017-09-23T14:25:10.704Z,984
2017-09-23T14:26:20.343Z,996
2017-09-23T14:27:29.627Z,988
2017-09-23T14:28:38.278Z,980
2017-09-23T14:29:47.271Z,964
2017-09-23T14:30:56.245Z,872
2017-09-23T14:32:04.895Z,860
2017-09-23T14:33:13.699Z,964
2017-09-23T14:34:22.348Z,1068
2017-09-23T14:35:31.622Z,1028
2017-09-23T14:36:40.608Z,992
2017-09-23T14:37:50.210Z,1016
2017-09-23T14:38:59.354Z,1004
2017-09-23T14:40:08.635Z,920
2017-09-23T14:41:17.612Z,812
2017-09-23T14:42:27.835Z,772
2017-09-23T14:43:37.744Z,816
2017-09-23T14:44:46.865Z,852
2017-09-23T14:45:55.894Z,796
2017-09-23T14:47:04.926Z,788
2017-09-23T14:48:13.910Z,784
2017-09-23T14:49:23.222Z,796
2017-09-23T14:50:32.656Z,800
2017-09-23T14:51:41.943Z,796
2017-09-23T14:52:50.916Z,792
2017-09-23T14:54:00.210Z,788
2017-09-23T14:55:08.899Z,780
2017-09-23T14:56:18.329Z,780
2017-09-23T14:57:27.932Z,796
2017-09-23T14:58:37.535Z,832
2017-09-23T14:59:47.157Z,872
2017-09-23T15:00:56.138Z,904
2017-09-23T15:02:05.268Z,916
2017-09-23T15:03:14.308Z,908
2017-09-23T15:04:23.285Z,884
2017-09-23T15:05:32.270Z,836
2017-09-23T15:06:41.231Z,760
2017-09-23T15:07:50.425Z,708
2017-09-23T15:08:59.390Z,680
2017-09-23T15:10:08.984Z,680
2017-09-23T15:11:18.277Z,688
2017-09-23T15:12:26.959Z,684
2017-09-23T15:13:36.139Z,696
2017-09-23T15:14:44.787Z,704
2017-09-23T15:15:54.172Z,708
2017-09-23T15:17:03.448Z,704
2017-09-23T15:18:12.752Z,684
2017-09-23T15:19:21.879Z,664
2017-09-23T15:20:30.545Z,648
2017-09-23T15:21:39.826Z,640
2017-09-23T15:22:49.730Z,632
2017-09-23T15:23:58.702Z,628
2017-09-23T15:25:07.846Z,624
2017-09-23T15:26:17.448Z,620
2017-09-23T15:27:26.426Z,652
2017-09-23T15:28:35.088Z,612
2017-09-23T15:29:43.740Z,604
2017-09-23T15:30:52.860Z,596
2017-09-23T15:32:01.853Z,592
2017-09-23T15:33:10.511Z,588
2017-09-23T15:34:19.178Z,584
2017-09-23T15:35:27.845Z,584
2017-09-23T15:36:37.124Z,580
2017-09-23T15:37:46.103Z,576
2017-09-23T15:38:55.386Z,572
2017-09-23T15:40:04.696Z,572
2017-09-23T15:41:13.670Z,572
2017-09-23T15:42:22.497Z,572
2017-09-23T15:43:31.157Z,568
2017-09-23T15:44:40.138Z,564
2017-09-23T15:45:48.819Z,572
2017-09-23T15:46:57.473Z,580
2017-09-23T15:48:07.080Z,580
2017-09-23T15:49:16.723Z,568
2017-09-23T15:50:25.695Z,548
2017-09-23T15:51:35.024Z,532
2017-09-23T15:52:43.694Z,520
2017-09-23T15:53:52.688Z,520
2017-09-23T15:55:01.666Z,520
2017-09-23T15:56:10.640Z,524
2017-09-23T15:57:19.625Z,528
2017-09-23T15:58:28.925Z,524
2017-09-23T15:59:38.075Z,512
2017-09-23T16:00:47.077Z,492